createdAt,value
2018-02-14T00:02:26.348Z,98597.66
2018-02-14T00:04:57.708Z,98588.68
2018-02-14T00:07:28.544Z,98594.98
2018-02-14T00:09:59.609Z,98594.81
2018-02-14T00:12:30.874Z,98597.14
2018-02-14T00:15:02.329Z,98601.81
2018-02-14T00:17:33.499Z,98599.56
2018-02-14T00:20:04.537Z,98593.75
2018-02-14T00:22:35.758Z,98592.61
2018-02-14T00:25:06.584Z,98596.81
2018-02-14T00:27:38.045Z,98608.09
2018-02-14T00:30:10.069Z,98601.30
2018-02-14T00:32:41.400Z,98611.55
2018-02-14T00:35:12.749Z,98611.59
2018-02-14T00:37:44.628Z,98614.39
2018-02-14T00:40:16.450Z,98607.73
2018-02-14T00:42:48.004Z,98604.36
2018-02-14T00:45:18.889Z,98607.28
2018-02-14T00:47:50.009Z,98609.10
2018-02-14T00:50:21.587Z,98609.84
2018-02-14T00:52:53.096Z,98614.05
2018-02-14T00:55:24.462Z,98614.72
2018-02-14T00:57:56.038Z,98613.91
2018-02-14T01:00:27.296Z,98616.18
2018-02-14T01:02:58.695Z,98622.69
2018-02-14T01:05:29.883Z,98620.11
2018-02-14T01:08:01.497Z,98620.59
2018-02-14T01:10:33.564Z,98629.64
2018-02-14T01:13:04.976Z,98626.65
2018-02-14T01:15:38.584Z,98627.00
2018-02-14T01:18:10.150Z,98631.97
2018-02-14T01:20:44.992Z,98628.84
2018-02-14T01:23:16.399Z,98630.03
2018-02-14T01:25:47.812Z,98631.19
2018-02-14T01:28:20.672Z,98627.58
2018-02-14T01:30:52.121Z,98625.41
2018-02-14T01:33:23.704Z,98633.25
2018-02-14T01:35:54.553Z,98629.33
2018-02-14T01:38:26.080Z,98634.77
2018-02-14T01:40:57.626Z,98633.06
2018-02-14T01:43:29.048Z,98632.89
2018-02-14T01:46:00.247Z,98639.92
2018-02-14T01:48:31.827Z,98636.73
2018-02-14T01:51:03.390Z,98637.80
2018-02-14T01:53:34.977Z,98638.07
2018-02-14T01:56:06.354Z,98642.48
2018-02-14T01:58:38.322Z,98637.20
2018-02-14T02:01:10.084Z,98641.27
2018-02-14T02:03:41.650Z,98643.47
2018-02-14T02:06:13.196Z,98642.11
2018-02-14T02:08:44.870Z,98641.59
2018-02-14T02:11:16.277Z,98647.81
2018-02-14T02:13:47.788Z,98652.07
2018-02-14T02:16:19.300Z,98651.31
2018-02-14T02:18:50.573Z,98648.67
2018-02-14T02:21:22.516Z,98651.73
2018-02-14T02:23:53.639Z,98650.88
2018-02-14T02:26:25.244Z,98648.06
2018-02-14T02:28:56.649Z,98651.73
2018-02-14T02:31:27.597Z,98649.73
2018-02-14T02:33:58.892Z,98651.84
2018-02-14T02:36:30.795Z,98649.24
2018-02-14T02:39:02.509Z,98652.78
2018-02-14T02:41:34.213Z,98661.37
2018-02-14T02:44:06.308Z,98664.02
2018-02-14T02:46:38.032Z,98662.89
2018-02-14T02:49:09.149Z,98666.84
2018-02-14T02:51:41.148Z,98668.16
2018-02-14T02:54:12.924Z,98663.59
2018-02-14T02:56:44.565Z,98672.45
2018-02-14T02:59:16.295Z,98676.30
2018-02-14T03:01:48.316Z,98673.73
2018-02-14T03:04:19.751Z,98677.41
2018-02-14T03:06:51.426Z,98683.41
2018-02-14T03:09:23.184Z,98677.63
2018-02-14T03:11:54.739Z,98681.02
2018-02-14T03:14:26.179Z,98673.40
2018-02-14T03:16:57.818Z,98681.13
2018-02-14T03:19:29.337Z,98682.75
2018-02-14T03:22:01.235Z,98684.23
2018-02-14T03:24:32.829Z,98688.84
2018-02-14T03:27:04.840Z,98686.16
2018-02-14T03:29:36.634Z,98689.78
2018-02-14T03:32:08.793Z,98689.92
2018-02-14T03:34:40.672Z,98689.67
2018-02-14T03:37:12.279Z,98697.12
2018-02-14T03:39:43.904Z,98701.58
2018-02-14T03:42:15.699Z,98697.89
2018-02-14T03:44:47.366Z,98701.91
2018-02-14T03:47:18.992Z,98700.28
2018-02-14T03:49:50.988Z,98707.28
2018-02-14T03:52:22.644Z,98702.22
2018-02-14T03:54:54.460Z,98711.21
2018-02-14T03:57:26.485Z,98710.47
2018-02-14T03:59:58.323Z,98705.67
2018-02-14T04:02:30.107Z,98721.75
2018-02-14T04:05:02.184Z,98718.91
2018-02-14T04:07:34.008Z,98721.03
2018-02-14T04:10:05.628Z,98730.20
2018-02-14T04:12:37.232Z,98734.92
2018-02-14T04:15:08.544Z,98736.77
2018-02-14T04:17:39.987Z,98736.20
2018-02-14T04:20:11.451Z,98747.93
2018-02-14T04:22:43.236Z,98745.38
2018-02-14T04:25:15.044Z,98741.95
2018-02-14T04:27:46.983Z,98748.63
2018-02-14T04:30:18.979Z,98749.58
2018-02-14T04:32:50.698Z,98758.87
2018-02-14T04:35:22.800Z,98756.77
2018-02-14T04:37:54.436Z,98762.08
2018-02-14T04:40:26.060Z,98760.75
2018-02-14T04:42:58.300Z,98769.92
2018-02-14T04:45:29.884Z,98764.17
2018-02-14T04:48:01.753Z,98769.16
2018-02-14T04:50:33.275Z,98777.39
2018-02-14T04:53:04.753Z,98770.89
2018-02-14T04:55:36.187Z,98773.09
2018-02-14T04:58:07.856Z,98772.77
2018-02-14T05:00:39.581Z,98772.64
2018-02-14T05:03:11.658Z,98777.13
2018-02-14T05:05:43.363Z,98778.50
2018-02-14T05:08:15.199Z,98790.24
2018-02-14T05:10:47.156Z,98787.69
2018-02-14T05:13:19.048Z,98793.74
2018-02-14T05:15:50.680Z,98796.86
2018-02-14T05:18:22.283Z,98800.33
2018-02-14T05:20:53.938Z,98806.16
2018-02-14T05:23:26.551Z,98809.98
2018-02-14T05:25:58.532Z,98809.97
2018-02-14T05:28:32.870Z,98812.38
2018-02-14T05:31:08.412Z,98813.11
2018-02-14T05:33:39.775Z,98816.91
2018-02-14T05:36:11.471Z,98819.89
2018-02-14T05:38:43.727Z,98820.83
2018-02-14T05:41:15.340Z,98822.95
2018-02-14T05:43:47.896Z,98825.78
2018-02-14T05:46:19.651Z,98822.84
2018-02-14T05:48:51.209Z,98827.56
2018-02-14T05:51:22.849Z,98835.56
2018-02-14T05:53:53.892Z,98839.73
2018-02-14T05:56:25.577Z,98833.38
2018-02-14T05:58:57.071Z,98842.02
2018-02-14T06:01:30.143Z,98843.15
2018-02-14T06:04:01.476Z,98843.06
2018-02-14T06:06:35.001Z,98850.66
2018-02-14T06:09:06.592Z,98856.02
2018-02-14T06:11:39.691Z,98861.97
2018-02-14T06:14:11.300Z,98866.48
2018-02-14T06:16:43.501Z,98871.31
2018-02-14T06:19:15.012Z,98873.65
2018-02-14T06:21:46.091Z,98875.00
2018-02-14T06:24:17.476Z,98879.91
2018-02-14T06:26:48.600Z,98882.19
2018-02-14T06:29:20.202Z,98889.25
2018-02-14T06:31:51.855Z,98891.72
2018-02-14T06:34:23.655Z,98892.87
2018-02-14T06:36:55.164Z,98897.19
2018-02-14T06:39:26.468Z,98898.96
2018-02-14T06:41:57.581Z,98905.58
2018-02-14T06:44:28.651Z,98905.81
2018-02-14T06:46:59.788Z,98903.19
2018-02-14T06:49:31.372Z,98907.81
2018-02-14T06:52:02.743Z,98910.03
2018-02-14T06:54:34.553Z,98902.61
2018-02-14T06:57:06.265Z,98913.92
2018-02-14T06:59:38.140Z,98917.19
2018-02-14T07:02:09.872Z,98914.84
2018-02-14T07:04:40.891Z,98914.41
2018-02-14T07:07:12.016Z,98918.06
2018-02-14T07:09:43.825Z,98917.13
2018-02-14T07:12:15.467Z,98924.57
2018-02-14T07:14:46.784Z,98929.62
2018-02-14T07:17:17.897Z,98930.05
2018-02-14T07:19:49.102Z,98928.84
2018-02-14T07:22:20.748Z,98927.69
2018-02-14T07:24:52.150Z,98926.65
2018-02-14T07:27:23.576Z,98931.53
2018-02-14T07:29:54.733Z,98935.22
2018-02-14T07:32:25.796Z,98940.07
2018-02-14T07:34:57.318Z,98937.84
2018-02-14T07:37:28.443Z,98942.63
2018-02-14T07:39:59.622Z,98938.16
2018-02-14T07:42:31.541Z,98945.55
2018-02-14T07:45:03.181Z,98951.52
2018-02-14T07:47:35.602Z,98942.98
2018-02-14T07:50:05.992Z,98954.52
2018-02-14T07:52:38.092Z,98951.17
2018-02-14T07:55:09.196Z,98958.14
2018-02-14T07:57:40.292Z,98956.34
2018-02-14T08:00:11.620Z,98948.91
2018-02-14T08:02:43.040Z,98949.98
2018-02-14T08:05:14.056Z,98950.38
2018-02-14T08:07:45.441Z,98954.16
2018-02-14T08:10:16.855Z,98960.19
2018-02-14T08:12:48.147Z,98960.12
2018-02-14T08:15:19.484Z,98967.06
2018-02-14T08:17:50.328Z,98971.16
2018-02-14T08:20:21.068Z,98966.92
2018-02-14T08:22:52.492Z,98964.05
2018-02-14T08:25:23.896Z,98968.77
2018-02-14T08:27:55.084Z,98968.06
2018-02-14T08:30:26.587Z,98964.39
2018-02-14T08:32:57.639Z,98971.30
2018-02-14T08:35:28.846Z,98972.45
2018-02-14T08:37:59.657Z,98974.77
2018-02-14T08:40:30.684Z,98975.69
2018-02-14T08:43:01.494Z,98978.20
2018-02-14T08:45:32.265Z,98986.64
2018-02-14T08:48:03.320Z,98990.06
2018-02-14T08:50:34.084Z,98995.97
2018-02-14T08:53:04.942Z,98998.03
2018-02-14T08:55:35.961Z,98998.41
2018-02-14T08:58:07.500Z,98994.20
2018-02-14T09:00:39.091Z,98997.62
2018-02-14T09:03:10.012Z,99001.06
2018-02-14T09:05:40.766Z,99002.53
2018-02-14T09:08:11.988Z,99007.30
2018-02-14T09:10:43.423Z,99006.59
2018-02-14T09:13:14.646Z,99012.63
2018-02-14T09:15:46.211Z,99007.55
2018-02-14T09:18:17.068Z,99002.31
2018-02-14T09:20:47.840Z,99004.96
2018-02-14T09:23:18.923Z,99000.59
2018-02-14T09:25:50.192Z,99007.12
2018-02-14T09:28:21.027Z,99008.58
2018-02-14T09:30:52.117Z,99011.81
2018-02-14T09:33:22.911Z,99012.81
2018-02-14T09:35:54.405Z,99015.49
2018-02-14T09:38:25.798Z,99012.19
2018-02-14T09:40:57.092Z,99011.98
2018-02-14T09:43:28.617Z,99018.09
2018-02-14T09:45:59.660Z,99008.48
2018-02-14T09:48:30.431Z,99019.50
2018-02-14T09:51:01.472Z,99019.92
2018-02-14T09:53:32.342Z,99019.23
2018-02-14T09:56:03.160Z,99018.05
2018-02-14T09:58:34.188Z,99019.23
2018-02-14T10:01:05.002Z,99019.26
2018-02-14T10:03:35.837Z,99024.48
2018-02-14T10:06:07.168Z,99017.25
2018-02-14T10:08:37.939Z,99033.92
2018-02-14T10:11:08.705Z,99034.69
2018-02-14T10:13:40.008Z,99038.33
2018-02-14T10:16:10.703Z,99043.70
2018-02-14T10:18:41.548Z,99041.73
2018-02-14T10:21:12.575Z,99052.00
2018-02-14T10:23:43.363Z,99047.99
2018-02-14T10:26:14.408Z,99052.52
2018-02-14T10:28:45.198Z,99045.76
2018-02-14T10:31:16.043Z,99047.64
2018-02-14T10:33:47.203Z,99047.10
2018-02-14T10:36:17.984Z,99048.39
2018-02-14T10:38:49.233Z,99044.90
2018-02-14T10:41:20.352Z,99048.03
2018-02-14T10:43:51.150Z,99044.28
2018-02-14T10:46:22.447Z,99046.53
2018-02-14T10:48:53.423Z,99044.70
2018-02-14T10:51:24.195Z,99043.04
2018-02-14T10:53:54.943Z,99050.61
2018-02-14T10:56:26.115Z,99050.07
2018-02-14T10:58:57.466Z,99041.30
2018-02-14T11:01:32.336Z,99046.57
2018-02-14T11:04:06.978Z,99054.33
2018-02-14T11:06:38.408Z,99053.24
2018-02-14T11:09:09.144Z,99050.02
2018-02-14T11:11:40.504Z,99044.20
2018-02-14T11:14:11.904Z,99042.08
2018-02-14T11:16:42.728Z,99039.67
2018-02-14T11:19:13.548Z,99038.41
2018-02-14T11:21:44.672Z,99038.64
2018-02-14T11:24:15.709Z,99038.52
2018-02-14T11:26:46.475Z,99035.72
2018-02-14T11:29:17.532Z,99041.89
2018-02-14T11:31:48.327Z,99034.48
2018-02-14T11:34:19.116Z,99027.66
2018-02-14T11:36:50.281Z,99033.70
2018-02-14T11:39:21.062Z,99039.23
2018-02-14T11:41:52.184Z,99038.19
2018-02-14T11:44:23.004Z,99043.07
2018-02-14T11:46:54.105Z,99040.81
2018-02-14T11:49:25.160Z,99028.97
2018-02-14T11:51:55.955Z,99028.28
2018-02-14T11:54:26.752Z,99021.51
2018-02-14T11:56:57.795Z,99015.67
2018-02-14T11:59:28.539Z,99015.73
2018-02-14T12:01:59.284Z,99018.53
2018-02-14T12:04:30.164Z,99018.09
2018-02-14T12:07:00.923Z,99015.95
2018-02-14T12:09:32.796Z,99019.59
2018-02-14T12:12:03.916Z,99016.06
2018-02-14T12:14:34.724Z,99017.98
2018-02-14T12:17:05.856Z,99019.44
2018-02-14T12:19:36.616Z,99013.31
2018-02-14T12:22:08.284Z,99014.53
2018-02-14T12:24:39.969Z,99018.53
2018-02-14T12:27:10.978Z,99015.67
2018-02-14T12:29:41.713Z,99008.16
2018-02-14T12:32:12.738Z,99007.06
2018-02-14T12:34:43.577Z,99007.42
2018-02-14T12:37:14.348Z,98996.20
2018-02-14T12:39:45.407Z,99006.37
2018-02-14T12:42:16.268Z,99002.31
2018-02-14T12:44:47.085Z,99007.28
2018-02-14T12:47:17.864Z,98999.27
2018-02-14T12:49:48.662Z,98995.88
2018-02-14T12:52:19.852Z,98991.56
2018-02-14T12:54:50.615Z,98994.51
2018-02-14T12:57:21.372Z,98985.41
2018-02-14T12:59:52.276Z,98997.04
2018-02-14T13:02:23.020Z,98994.03
2018-02-14T13:04:53.767Z,98998.94
2018-02-14T13:07:25.444Z,98992.52
2018-02-14T13:09:57.368Z,98992.17
2018-02-14T13:12:29.729Z,98996.36
2018-02-14T13:15:02.225Z,98992.59
2018-02-14T13:17:33.033Z,98995.52
2018-02-14T13:20:03.850Z,98993.64
2018-02-14T13:22:35.144Z,98990.50
2018-02-14T13:25:06.055Z,98988.37
2018-02-14T13:27:36.831Z,98987.13
2018-02-14T13:30:08.028Z,98988.91
2018-02-14T13:32:38.812Z,98984.55
2018-02-14T13:35:09.717Z,98994.75
2018-02-14T13:37:43.440Z,98993.23
2018-02-14T13:40:14.263Z,98992.34
2018-02-14T13:42:45.403Z,98990.18
2018-02-14T13:45:16.270Z,98990.91
2018-02-14T13:47:47.395Z,98992.81
2018-02-14T13:50:18.536Z,98996.39
2018-02-14T13:52:49.316Z,98998.45
2018-02-14T13:55:20.092Z,99004.35
2018-02-14T13:57:51.607Z,98998.38
2018-02-14T14:00:22.467Z,98998.06
2018-02-14T14:02:53.236Z,99001.91
2018-02-14T14:05:24.420Z,99008.14
2018-02-14T14:07:55.232Z,99001.27
2018-02-14T14:10:26.344Z,99005.55
2018-02-14T14:12:57.832Z,99011.01
2018-02-14T14:15:28.599Z,99013.73
2018-02-14T14:17:59.632Z,99012.31
2018-02-14T14:23:05.220Z,99022.88
2018-02-14T14:25:36.336Z,99016.16
2018-02-14T14:28:09.228Z,99009.45
2018-02-14T14:30:40.338Z,99017.23
2018-02-14T14:33:11.360Z,99012.44
2018-02-14T14:35:42.209Z,99016.42
2018-02-14T14:38:13.264Z,99015.46
2018-02-14T14:40:44.091Z,99004.25
2018-02-14T14:43:14.819Z,99016.08
2018-02-14T14:45:45.910Z,99016.85
2018-02-14T14:48:16.876Z,99023.78
2018-02-14T14:50:47.735Z,99020.94
2018-02-14T14:53:19.064Z,99025.16
2018-02-14T14:55:49.832Z,99026.41
2018-02-14T14:58:20.812Z,99027.63
2018-02-14T15:00:51.591Z,99033.06
2018-02-14T15:03:22.395Z,99033.00
2018-02-14T15:05:53.294Z,99028.79
2018-02-14T15:08:24.087Z,99024.70
2018-02-14T15:10:54.970Z,99024.60
2018-02-14T15:13:26.037Z,99021.08
2018-02-14T15:15:56.844Z,99026.36
2018-02-14T15:18:28.044Z,99021.19
2018-02-14T15:20:59.152Z,99030.58
2018-02-14T15:23:29.920Z,99022.04
2018-02-14T15:26:00.696Z,99028.61
2018-02-14T15:28:31.799Z,99028.19
2018-02-14T15:31:02.757Z,99025.31
2018-02-14T15:33:34.000Z,99029.97
2018-02-14T15:36:05.558Z,99029.22
2018-02-14T15:38:36.750Z,99037.35
2018-02-14T15:41:07.628Z,99032.94
2018-02-14T15:43:38.328Z,99034.14
2018-02-14T15:46:10.344Z,99036.86
2018-02-14T15:48:41.151Z,99034.61
2018-02-14T15:51:11.913Z,99028.02
2018-02-14T15:53:42.934Z,99029.49
2018-02-14T15:56:13.624Z,99028.33
2018-02-14T15:58:44.844Z,99031.48
2018-02-14T16:01:15.984Z,99024.27
2018-02-14T16:03:46.795Z,99030.04
2018-02-14T16:06:17.840Z,99031.69
2018-02-14T16:08:48.639Z,99029.59
2018-02-14T16:11:19.504Z,99034.45
2018-02-14T16:13:50.485Z,99041.33
2018-02-14T16:16:21.248Z,99043.50
2018-02-14T16:18:52.081Z,99038.91
2018-02-14T16:21:23.169Z,99034.92
2018-02-14T16:23:53.976Z,99039.04
2018-02-14T16:26:24.775Z,99041.24
2018-02-14T16:28:55.824Z,99046.52
2018-02-14T16:31:26.620Z,99041.20
2018-02-14T16:33:57.546Z,99053.99
2018-02-14T16:36:28.493Z,99045.73
2018-02-14T16:38:59.744Z,99052.92
2018-02-14T16:41:30.778Z,99053.44
2018-02-14T16:44:01.604Z,99062.97
2018-02-14T16:46:32.389Z,99061.09
2018-02-14T16:49:03.228Z,99063.56
2018-02-14T16:51:34.016Z,99068.58
2018-02-14T16:54:05.192Z,99072.02
2018-02-14T16:56:36.325Z,99068.27
2018-02-14T16:59:07.124Z,99068.59
2018-02-14T17:01:38.142Z,99070.72
2018-02-14T17:04:09.157Z,99066.12
2018-02-14T17:07:11.467Z,99065.83
2018-02-14T17:09:42.319Z,99064.33
2018-02-14T17:12:13.233Z,99062.52
2018-02-14T17:14:44.328Z,99071.89
2018-02-14T17:17:15.210Z,99076.17
2018-02-14T17:19:46.014Z,99074.23
2018-02-14T17:22:17.191Z,99079.28
2018-02-14T17:24:48.074Z,99078.70
2018-02-14T17:27:18.820Z,99076.23
2018-02-14T17:29:49.904Z,99078.56
2018-02-14T17:32:20.644Z,99086.56
2018-02-14T17:34:51.456Z,99083.31
2018-02-14T17:38:24.879Z,99089.24
2018-02-14T17:40:55.792Z,99096.38
2018-02-14T17:43:26.875Z,99097.27
2018-02-14T17:45:57.696Z,99101.91
2018-02-14T17:48:28.565Z,99101.91
2018-02-14T17:50:59.705Z,99101.60
2018-02-14T17:53:30.416Z,99106.03
2018-02-14T17:56:01.174Z,99105.15
2018-02-14T17:58:32.248Z,99112.28
2018-02-14T18:01:03.162Z,99111.36
2018-02-14T18:03:33.939Z,99109.16
2018-02-14T18:06:04.941Z,99117.58
2018-02-14T18:08:35.807Z,99121.39
2018-02-14T18:11:06.659Z,99124.55
2018-02-14T18:13:37.825Z,99119.89
2018-02-14T18:16:12.933Z,99123.63
2018-02-14T18:18:44.096Z,99124.87
2018-02-14T18:21:14.901Z,99130.32
2018-02-14T18:23:45.749Z,99137.69
2018-02-14T18:26:16.827Z,99136.48
2018-02-14T18:28:47.856Z,99136.44
2018-02-14T18:31:18.772Z,99141.88
2018-02-14T18:33:49.875Z,99137.47
2018-02-14T18:36:20.876Z,99143.04
2018-02-14T18:38:52.036Z,99147.45
2018-02-14T18:41:22.921Z,99145.88
2018-02-14T18:43:53.737Z,99148.73
2018-02-14T18:46:24.927Z,99152.79
2018-02-14T18:48:55.805Z,99145.57
2018-02-14T18:51:26.613Z,99135.92
2018-02-14T18:53:57.721Z,99138.81
2018-02-14T18:56:28.605Z,99144.06
2018-02-14T18:58:59.493Z,99151.41
2018-02-14T19:01:30.623Z,99146.06
2018-02-14T19:04:01.508Z,99144.34
2018-02-14T19:06:32.443Z,99143.31
2018-02-14T19:09:03.809Z,99145.17
2018-02-14T19:11:34.804Z,99151.64
2018-02-14T19:16:41.050Z,99144.36
2018-02-14T19:19:11.964Z,99151.50
2018-02-14T19:21:43.148Z,99149.25
2018-02-14T19:24:13.938Z,99156.68
2018-02-14T19:26:44.787Z,99153.70
2018-02-14T19:29:15.879Z,99155.63
2018-02-14T19:31:46.683Z,99157.62
2018-02-14T19:34:18.735Z,99157.42
2018-02-14T19:36:49.513Z,99159.10
2018-02-14T19:39:20.419Z,99156.61
2018-02-14T19:41:51.519Z,99155.80
2018-02-14T19:44:22.911Z,99156.42
2018-02-14T19:46:54.668Z,99155.16
2018-02-14T19:49:25.840Z,99151.64
2018-02-14T19:51:56.732Z,99156.11
2018-02-14T19:54:28.136Z,99159.40
2018-02-14T19:57:01.628Z,99146.28
2018-02-14T19:59:32.555Z,99154.80
2018-02-14T20:02:04.027Z,99153.91
2018-02-14T20:04:34.918Z,99145.82
2018-02-14T20:07:05.723Z,99145.39
2018-02-14T20:09:36.918Z,99141.77
2018-02-14T20:12:07.856Z,99137.19
2018-02-14T20:14:38.851Z,99137.89
2018-02-14T20:17:10.179Z,99129.74
2018-02-14T20:19:40.984Z,99133.30
2018-02-14T20:22:12.567Z,99131.44
2018-02-14T20:24:43.585Z,99129.48
2018-02-14T20:27:14.855Z,99134.22
2018-02-14T20:29:46.052Z,99132.42
2018-02-14T20:32:17.552Z,99130.72
2018-02-14T20:34:48.604Z,99131.02
2018-02-14T20:37:19.780Z,99130.82
2018-02-14T20:39:51.016Z,99135.47
2018-02-14T20:42:21.882Z,99132.75
2018-02-14T20:44:53.020Z,99137.00
2018-02-14T20:47:23.907Z,99146.02
2018-02-14T20:49:55.301Z,99143.80
2018-02-14T20:52:26.944Z,99144.97
2018-02-14T20:54:58.008Z,99153.96
2018-02-14T20:57:29.112Z,99152.80
2018-02-14T20:59:59.872Z,99151.45
2018-02-14T21:02:31.155Z,99150.16
2018-02-14T21:05:02.301Z,99148.06
2018-02-14T21:07:33.196Z,99150.50
2018-02-14T21:10:04.055Z,99146.30
2018-02-14T21:12:35.561Z,99142.45
2018-02-14T21:15:06.353Z,99143.08
2018-02-14T21:17:37.372Z,99133.48
2018-02-14T21:20:08.597Z,99127.09
2018-02-14T21:22:39.564Z,99125.78
2018-02-14T21:25:11.541Z,99121.62
2018-02-14T21:27:42.301Z,99120.17
2018-02-14T21:30:13.728Z,99109.48
2018-02-14T21:32:45.200Z,99100.97
2018-02-14T21:35:16.048Z,99102.33
2018-02-14T21:37:46.860Z,99098.87
2018-02-14T21:40:17.876Z,99095.04
2018-02-14T21:42:48.652Z,99088.52
2018-02-14T21:45:19.332Z,99079.98
2018-02-14T21:47:50.060Z,99080.50
2018-02-14T21:50:20.846Z,99079.91
2018-02-14T21:52:52.355Z,99077.55
2018-02-14T21:55:23.510Z,99066.26
2018-02-14T21:57:54.323Z,99072.34
2018-02-14T22:00:25.857Z,99070.90
2018-02-14T22:02:57.172Z,99061.93
2018-02-14T22:05:28.016Z,99062.45
2018-02-14T22:07:58.851Z,99070.95
2018-02-14T22:10:30.383Z,99072.99
2018-02-14T22:13:02.958Z,99062.50
2018-02-14T22:15:34.032Z,99053.89
2018-02-14T22:18:04.795Z,99055.08
2018-02-14T22:20:35.594Z,99046.50
2018-02-14T22:23:06.844Z,99043.48
2018-02-14T22:25:37.663Z,99045.94
2018-02-14T22:28:08.535Z,99051.22
2018-02-14T22:30:39.545Z,99063.42
2018-02-14T22:33:10.468Z,99064.30
2018-02-14T22:35:41.438Z,99063.53
2018-02-14T22:38:12.679Z,99058.34
2018-02-14T22:40:43.463Z,99061.44
2018-02-14T22:43:14.272Z,99051.83
2018-02-14T22:45:45.815Z,99057.38
2018-02-14T22:48:16.662Z,99059.98
2018-02-14T22:50:47.751Z,99057.31
2018-02-14T22:53:18.517Z,99056.80
2018-02-14T22:55:49.279Z,99052.82
2018-02-14T22:58:20.143Z,99058.65
2018-02-14T23:00:50.931Z,99051.27
2018-02-14T23:03:24.404Z,99055.72
2018-02-14T23:05:55.752Z,99047.14
2018-02-14T23:08:27.228Z,99040.41
2018-02-14T23:10:58.307Z,99036.38
2018-02-14T23:13:29.148Z,99041.89
2018-02-14T23:16:00.058Z,99026.98
2018-02-14T23:18:31.719Z,99033.84
2018-02-14T23:21:02.473Z,99038.86
2018-02-14T23:23:33.323Z,99031.27
2018-02-14T23:26:04.502Z,99031.08
2018-02-14T23:28:35.278Z,99023.46
2018-02-14T23:31:06.087Z,99023.48
2018-02-14T23:33:37.170Z,99023.90
2018-02-14T23:36:08.063Z,99024.58
2018-02-14T23:38:39.412Z,99015.63
2018-02-14T23:41:10.488Z,99021.42
2018-02-14T23:43:41.536Z,99011.97
2018-02-14T23:46:12.592Z,98999.73
2018-02-14T23:48:44.106Z,99006.92
2018-02-14T23:51:14.910Z,99008.36
2018-02-14T23:53:45.907Z,99005.70
2018-02-14T23:56:17.090Z,99002.14
2018-02-14T23:58:48.283Z,99005.59
